Time;durP1;ratioP1;P1;durP2;ratioP2;P2;SDS_P1;SDS_P2;PMS_P1;PMS_P2;Temp;Humidity;BMP_temperature;BMP_pressure;BME280_temperature;BME280_humidity;BME280_pressure;Samples;Min_cycle;Max_cycle;Signal;HPM_P1;HPM_P2
2022/09/23 00:00:16;;;;;;;11.52;8.73;;;;;;;12.28;100.00;101727.25;5066782;28;20458;-68
2022/09/23 00:02:41;;;;;;;13.50;8.25;;;;;;;12.26;100.00;101719.31;5073087;28;20364;-70
2022/09/23 00:05:09;;;;;;;14.02;7.95;;;;;;;12.20;100.00;101724.44;5074053;28;20024;-70
2022/09/23 00:07:34;;;;;;;8.80;7.68;;;;;;;12.18;100.00;101720.88;5069780;28;20039;-70
2022/09/23 00:10:00;;;;;;;13.15;8.45;;;;;;;12.13;100.00;101715.47;5068279;28;20024;-69
2022/09/23 00:12:25;;;;;;;14.23;7.97;;;;;;;12.07;100.00;101717.06;5090407;28;20471;-69
2022/09/23 00:14:51;;;;;;;10.30;7.63;;;;;;;12.01;100.00;101715.19;5093766;28;20056;-69
2022/09/23 00:17:16;;;;;;;9.32;8.15;;;;;;;11.95;100.00;101699.19;5092650;28;20016;-70
2022/09/23 00:19:42;;;;;;;9.43;7.63;;;;;;;11.94;100.00;101703.56;5084238;28;20107;-69
2022/09/23 00:22:07;;;;;;;9.48;8.07;;;;;;;11.95;100.00;101701.81;5090452;28;20119;-70
2022/09/23 00:24:33;;;;;;;13.43;8.38;;;;;;;11.91;100.00;101699.94;5060466;28;20487;-70
2022/09/23 00:26:59;;;;;;;10.60;7.43;;;;;;;11.84;100.00;101698.00;5089761;28;20498;-69
2022/09/23 00:29:24;;;;;;;11.48;8.10;;;;;;;11.79;100.00;101697.91;5061235;28;20466;-68
2022/09/23 00:31:49;;;;;;;13.05;8.55;;;;;;;11.74;100.00;101703.03;5079662;28;20033;-68
2022/09/23 00:34:15;;;;;;;15.23;9.35;;;;;;;11.71;100.00;101708.25;5078066;28;20038;-68
2022/09/23 00:36:42;;;;;;;13.07;8.48;;;;;;;11.70;100.00;101709.09;5074136;28;20040;-69
2022/09/23 00:39:08;;;;;;;10.30;8.27;;;;;;;11.68;100.00;101708.16;5080971;28;20463;-69
2022/09/23 00:41:34;;;;;;;12.88;7.88;;;;;;;11.64;100.00;101711.59;5073865;28;20031;-68
2022/09/23 00:44:01;;;;;;;13.68;8.68;;;;;;;11.66;100.00;101699.31;5074621;28;20449;-69
2022/09/23 00:46:38;;;;;;;11.13;9.07;;;;;;;11.69;100.00;101699.38;5064444;28;20031;-70
2022/09/23 00:49:18;;;;;;;11.43;9.10;;;;;;;11.72;100.00;101691.56;5088125;28;20035;-68
2022/09/23 00:51:50;;;;;;;12.13;8.27;;;;;;;11.73;100.00;101690.69;5075448;28;20024;-69
2022/09/23 00:54:17;;;;;;;9.68;7.72;;;;;;;11.75;100.00;101683.72;5074137;28;20448;-69
2022/09/23 00:56:43;;;;;;;10.30;7.90;;;;;;;11.75;100.00;101688.13;5083779;28;20020;-69
2022/09/23 00:59:09;;;;;;;10.93;8.35;;;;;;;11.72;100.00;101682.75;5081147;28;20016;-69
2022/09/23 01:01:36;;;;;;;12.77;8.23;;;;;;;11.73;100.00;101684.53;5076350;28;20028;-69
2022/09/23 01:04:02;;;;;;;11.98;8.73;;;;;;;11.69;100.00;101683.56;5073954;28;20099;-69
2022/09/23 01:06:28;;;;;;;10.40;8.38;;;;;;;11.68;100.00;101681.81;5089974;28;20059;-69
2022/09/23 01:08:53;;;;;;;10.88;8.15;;;;;;;11.68;100.00;101684.44;5080200;28;20024;-69
2022/09/23 01:11:44;;;;;;;10.55;7.97;;;;;;;11.70;100.00;101685.34;5089813;28;20506;-69
2022/09/23 01:14:21;;;;;;;10.27;7.63;;;;;;;11.66;100.00;101690.53;5094127;28;20494;-69
2022/09/23 01:16:52;;;;;;;14.85;8.13;;;;;;;11.67;100.00;101685.28;5093157;28;20388;-69
2022/09/23 01:19:46;;;;;;;13.00;9.27;;;;;;;11.67;100.00;101685.28;5063197;28;20043;-68
2022/09/23 01:22:16;;;;;;;12.23;8.18;;;;;;;11.68;100.00;101681.81;5087728;28;20715;-68
2022/09/23 01:25:09;;;;;;;11.77;8.13;;;;;;;11.64;100.00;101674.69;5089298;28;20103;-68
2022/09/23 01:27:38;;;;;;;17.73;8.95;;;;;;;11.66;100.00;101678.22;5074248;28;20050;-70
2022/09/23 01:30:03;;;;;;;10.05;7.60;;;;;;;11.57;100.00;101672.72;5072368;28;20032;-69
2022/09/23 01:32:37;;;;;;;13.40;8.45;;;;;;;11.55;100.00;101674.44;5091332;28;20114;-69
2022/09/23 01:35:41;;;;;;;13.13;8.43;;;;;;;11.50;100.00;101669.03;5086527;28;20032;-69
2022/09/23 01:38:31;;;;;;;14.68;8.73;;;;;;;11.50;100.00;101665.50;5075802;28;20044;-70
2022/09/23 01:41:23;;;;;;;9.88;7.90;;;;;;;11.48;100.00;101663.72;5082798;28;20449;-69
2022/09/23 01:44:37;;;;;;;13.07;8.05;;;;;;;11.42;100.00;101662.66;5089663;28;20028;-70
2022/09/23 01:47:20;;;;;;;11.85;8.77;;;;;;;11.40;100.00;101654.72;5040417;28;20048;-70
2022/09/23 01:49:57;;;;;;;14.57;8.18;;;;;;;11.48;100.00;101647.91;5079487;28;20082;-68
2022/09/23 01:52:45;;;;;;;12.10;8.25;;;;;;;11.44;100.00;101653.94;5089838;28;20494;-69
2022/09/23 01:55:24;;;;;;;11.63;7.93;;;;;;;11.40;100.00;101644.19;5057401;28;20031;-68
2022/09/23 01:58:06;;;;;;;19.27;9.15;;;;;;;11.38;100.00;101650.25;5035360;28;20024;-69
2022/09/23 02:00:36;;;;;;;11.23;7.72;;;;;;;11.37;100.00;101648.50;5075666;28;20418;-70
2022/09/23 02:03:14;;;;;;;12.75;8.90;;;;;;;11.41;100.00;101640.69;5055782;28;20063;-70
2022/09/23 02:05:48;;;;;;;10.60;8.05;;;;;;;11.35;100.00;101639.66;5067852;28;20038;-69
2022/09/23 02:08:20;;;;;;;10.88;8.63;;;;;;;11.36;100.00;101644.94;5081279;28;20029;-69
2022/09/23 02:10:55;;;;;;;14.55;8.45;;;;;;;11.33;100.00;101631.69;5083581;28;20063;-69
2022/09/23 02:13:46;;;;;;;11.07;8.68;;;;;;;11.30;100.00;101636.91;5093150;28;20053;-69
2022/09/23 02:16:21;;;;;;;13.90;8.80;;;;;;;11.29;100.00;101629.84;5072936;28;20119;-69
2022/09/23 02:18:54;;;;;;;11.52;7.53;;;;;;;11.27;100.00;101631.53;5090679;28;20070;-69
2022/09/23 02:21:24;;;;;;;10.25;7.82;;;;;;;11.24;100.00;101631.47;5090085;28;20028;-68
2022/09/23 02:23:53;;;;;;;11.13;8.32;;;;;;;11.28;100.00;101625.41;5079266;28;20384;-69
2022/09/23 02:26:34;;;;;;;11.60;8.20;;;;;;;11.27;100.00;101627.16;5072605;28;20032;-69
2022/09/23 02:29:15;;;;;;;10.25;7.80;;;;;;;11.31;100.00;101622.84;5088377;28;20408;-69
2022/09/23 02:31:56;;;;;;;11.45;7.93;;;;;;;11.34;100.00;101625.59;5073776;28;20472;-70
2022/09/23 02:34:22;;;;;;;15.32;9.30;;;;;;;11.31;100.00;101620.22;5077236;28;20039;-69
2022/09/23 02:37:09;;;;;;;9.75;7.72;;;;;;;11.26;100.00;101619.22;5056352;28;20024;-69
2022/09/23 02:40:06;;;;;;;11.50;7.93;;;;;;;11.24;100.00;101620.91;5066856;28;20035;-70
2022/09/23 02:42:43;;;;;;;9.52;7.43;;;;;;;11.26;100.00;101614.84;5070390;28;20040;-68
2022/09/23 02:45:08;;;;;;;11.93;7.88;;;;;;;11.22;100.00;101617.38;5079149;28;20070;-69
2022/09/23 02:47:35;;;;;;;8.27;6.95;;;;;;;11.23;100.00;101609.50;5091172;28;20069;-69
2022/09/23 02:50:01;;;;;;;8.73;7.00;;;;;;;11.26;100.00;101608.69;5088185;28;20027;-70
2022/09/23 02:52:27;;;;;;;10.73;7.68;;;;;;;11.29;100.00;101603.50;5084278;28;20496;-69
2022/09/23 02:54:53;;;;;;;11.13;7.10;;;;;;;11.33;100.00;101602.72;5071699;28;20021;-70
2022/09/23 02:57:19;;;;;;;8.55;7.10;;;;;;;11.37;100.00;101601.06;5083961;28;20024;-70
2022/09/23 02:59:45;;;;;;;10.05;6.45;;;;;;;11.35;100.00;101598.38;5073766;28;20552;-69
2022/09/23 03:02:13;;;;;;;9.07;6.78;;;;;;;11.40;100.00;101596.75;5073750;28;20044;-69
2022/09/23 03:05:14;;;;;;;8.60;6.30;;;;;;;11.43;100.00;101591.53;5084739;28;20035;-69
2022/09/23 03:07:46;;;;;;;9.93;6.20;;;;;;;11.48;100.00;101597.81;5082389;28;20028;-69
2022/09/23 03:10:23;;;;;;;13.18;7.28;;;;;;;11.54;100.00;101590.94;5081804;28;20043;-69
2022/09/23 03:13:14;;;;;;;12.13;6.80;;;;;;;11.56;100.00;101583.97;5083525;28;20048;-69
2022/09/23 03:15:55;;;;;;;8.00;5.90;;;;;;;11.59;100.00;101591.94;5074971;28;20028;-69
2022/09/23 03:18:30;;;;;;;11.25;6.60;;;;;;;11.61;100.00;101591.13;5090712;28;20360;-69
2022/09/23 03:21:02;;;;;;;9.57;6.05;;;;;;;11.63;100.00;101588.53;5070725;28;20032;-70
2022/09/23 03:23:34;;;;;;;9.80;6.88;;;;;;;11.64;100.00;101592.94;5074748;28;20035;-70
2022/09/23 03:26:04;;;;;;;10.77;6.70;;;;;;;11.63;100.00;101580.63;5079133;28;20111;-68
2022/09/23 03:28:31;;;;;;;8.63;6.40;;;;;;;11.65;100.00;101586.78;5057868;28;20115;-70
2022/09/23 03:30:59;;;;;;;10.65;6.85;;;;;;;11.67;100.00;101584.22;5078739;28;20028;-68
2022/09/23 03:33:26;;;;;;;10.15;6.32;;;;;;;11.69;100.00;101583.38;5072267;28;20052;-69
2022/09/23 03:38:45;;;;;;;11.15;6.65;;;;;;;11.70;100.00;101582.53;5071284;28;20436;-70
2022/09/23 03:41:18;;;;;;;9.23;6.68;;;;;;;11.71;100.00;101581.69;5089744;28;20035;-69
2022/09/23 03:43:44;;;;;;;9.40;6.85;;;;;;;11.71;100.00;101581.69;5093504;28;20042;-69
2022/09/23 03:46:11;;;;;;;12.93;6.95;;;;;;;11.72;100.00;101577.28;5087853;28;20083;-69
2022/09/23 03:48:36;;;;;;;13.90;6.57;;;;;;;11.72;100.00;101567.66;5075973;28;20483;-69
2022/09/23 03:51:20;;;;;;;9.60;6.82;;;;;;;11.73;100.00;101571.16;5075678;28;20012;-69
2022/09/23 03:53:47;;;;;;;;;;;;;;;11.73;100.00;101569.41;5075926;28;20040;-69
2022/09/23 03:56:13;;;;;;;10.68;6.38;;;;;;;11.75;100.00;101561.56;5074661;28;20252;-69
2022/09/23 03:58:38;;;;;;;11.90;6.88;;;;;;;11.73;100.00;101558.88;5060318;28;20025;-69
2022/09/23 04:01:04;;;;;;;9.77;6.40;;;;;;;11.72;100.00;101554.47;5078029;28;20040;-70
2022/09/23 04:03:30;;;;;;;9.27;6.68;;;;;;;11.73;100.00;101553.59;5080048;28;20120;-70
2022/09/23 04:05:55;;;;;;;9.48;6.88;;;;;;;11.73;100.00;101553.59;5076615;28;20032;-69
2022/09/23 04:08:20;;;;;;;8.45;6.55;;;;;;;11.76;100.00;101551.06;5077635;28;20028;-69
2022/09/23 04:10:46;;;;;;;10.02;5.90;;;;;;;11.77;100.00;101549.28;5056924;28;20055;-69
2022/09/23 04:13:11;;;;;;;12.70;6.90;;;;;;;11.75;100.00;101541.34;5078971;28;20024;-69
2022/09/23 04:15:37;;;;;;;10.40;6.93;;;;;;;11.78;100.00;101548.44;5077446;28;20020;-69
2022/09/23 04:18:02;;;;;;;9.73;6.97;;;;;;;11.79;100.00;101542.31;5088352;28;20170;-69
2022/09/23 04:20:29;;;;;;;12.27;6.43;;;;;;;11.80;100.00;101550.25;5071513;28;20108;-69
2022/09/23 04:22:55;;;;;;;12.35;6.75;;;;;;;11.80;100.00;101539.72;5068459;28;20107;-69
2022/09/23 04:25:20;;;;;;;11.95;7.20;;;;;;;11.82;100.00;101545.03;5065979;28;20029;-69
2022/09/23 04:27:46;;;;;;;9.75;7.10;;;;;;;11.81;100.00;101540.59;5077914;28;20526;-69
2022/09/23 04:30:12;;;;;;;16.67;6.68;;;;;;;11.82;100.00;101548.53;5071181;28;20029;-68
2022/09/23 04:32:37;;;;;;;11.23;7.20;;;;;;;11.81;100.00;101541.50;5073074;28;20052;-70
2022/09/23 04:35:04;;;;;;;10.38;7.30;;;;;;;11.84;100.00;101542.41;5074232;28;20486;-69
2022/09/23 04:37:29;;;;;;;10.77;6.85;;;;;;;11.85;100.00;101541.56;5064040;28;20036;-68
2022/09/23 04:39:55;;;;;;;9.73;6.10;;;;;;;11.87;100.00;101537.19;5073589;28;20020;-68
2022/09/23 04:42:20;;;;;;;9.73;6.93;;;;;;;11.88;100.00;101547.81;5068520;28;20059;-69
2022/09/23 04:44:46;;;;;;;11.15;6.85;;;;;;;11.86;100.00;101538.09;5066059;28;20108;-70
2022/09/23 04:47:11;;;;;;;11.93;7.00;;;;;;;11.87;100.00;101539.84;5068368;28;20044;-69
2022/09/23 04:49:37;;;;;;;9.90;7.05;;;;;;;11.88;100.00;101533.72;5044568;28;20037;-69
2022/09/23 04:52:04;;;;;;;10.15;7.47;;;;;;;11.87;100.00;101535.47;5070846;28;20095;-70
2022/09/23 04:54:29;;;;;;;16.88;6.50;;;;;;;11.88;100.00;101536.34;5064432;28;20024;-69
2022/09/23 04:56:55;;;;;;;11.18;7.30;;;;;;;11.90;100.00;101545.22;5072100;28;20024;-70
2022/09/23 04:59:20;;;;;;;11.48;6.97;;;;;;;11.91;100.00;101533.78;5073603;28;20426;-69
2022/09/23 05:01:46;;;;;;;9.57;6.90;;;;;;;11.91;100.00;101541.69;5072448;28;20028;-70
2022/09/23 05:04:12;;;;;;;14.10;8.57;;;;;;;11.89;100.00;101539.03;5073703;28;20024;-71
2022/09/23 05:06:38;;;;;;;12.68;7.50;;;;;;;11.89;100.00;101543.41;5073663;28;20060;-70
2022/09/23 05:09:06;;;;;;;10.85;6.93;;;;;;;11.88;100.00;101545.19;5073980;28;20072;-69
2022/09/23 05:11:31;;;;;;;11.32;7.18;;;;;;;11.92;100.00;101543.47;5087620;28;20040;-69
2022/09/23 05:13:57;;;;;;;11.13;7.30;;;;;;;11.90;100.00;101546.09;5075259;28;20036;-69
2022/09/23 05:16:23;;;;;;;14.90;7.82;;;;;;;11.92;100.00;101540.84;5087463;28;20127;-69
2022/09/23 05:18:50;;;;;;;9.27;7.20;;;;;;;11.94;100.00;101552.31;5070826;28;20032;-69
2022/09/23 05:21:18;;;;;;;8.98;6.57;;;;;;;11.94;100.00;101550.59;5073917;28;20032;-69
2022/09/23 05:23:48;;;;;;;10.85;6.70;;;;;;;11.96;100.00;101545.34;5072570;28;20025;-69
2022/09/23 05:26:15;;;;;;;9.85;6.68;;;;;;;11.98;100.00;101543.66;5070763;28;20082;-68
2022/09/23 05:28:41;;;;;;;10.98;7.22;;;;;;;12.01;100.00;101543.72;5089186;28;20103;-68
2022/09/23 05:31:18;;;;;;;16.52;7.60;;;;;;;12.02;100.00;101550.78;5093319;28;20048;-68
2022/09/23 05:33:52;;;;;;;12.30;7.95;;;;;;;12.04;100.00;101551.69;5069866;28;20027;-68
2022/09/23 05:36:20;;;;;;;13.05;7.25;;;;;;;12.04;100.00;101551.69;5071953;28;20024;-67
2022/09/23 05:38:47;;;;;;;15.30;7.72;;;;;;;12.03;100.00;101552.56;5071797;28;20565;-69
2022/09/23 05:41:13;;;;;;;12.43;7.65;;;;;;;12.07;100.00;101545.59;5071447;28;20056;-69
2022/09/23 05:43:38;;;;;;;16.73;8.63;;;;;;;12.08;100.00;101556.16;5072215;28;20114;-70
2022/09/23 05:46:10;;;;;;;14.00;7.70;;;;;;;12.08;100.00;101550.91;5072281;28;20031;-68
2022/09/23 05:48:37;;;;;;;13.07;7.60;;;;;;;12.08;100.00;101550.91;5072943;28;20036;-68
2022/09/23 05:51:11;;;;;;;11.40;7.78;;;;;;;12.11;100.00;101551.00;5072880;28;20024;-68
2022/09/23 05:53:37;;;;;;;16.80;7.88;;;;;;;12.12;100.00;101547.47;5072895;28;20024;-68
2022/09/23 05:56:03;;;;;;;15.70;8.77;;;;;;;12.14;100.00;101556.31;5072338;28;20027;-69
2022/09/23 05:58:29;;;;;;;18.70;8.02;;;;;;;12.16;100.00;101547.56;5072361;28;20024;-69
2022/09/23 06:00:57;;;;;;;10.75;7.57;;;;;;;12.18;100.00;101551.09;5072994;28;20023;-68
2022/09/23 06:03:24;;;;;;;17.83;7.00;;;;;;;12.19;100.00;101552.88;5055160;28;20021;-68
2022/09/23 06:05:53;;;;;;;15.43;7.65;;;;;;;12.21;100.00;101557.34;5072066;28;20028;-68
2022/09/23 06:08:19;;;;;;;9.23;7.22;;;;;;;12.25;100.00;101553.00;5073111;28;20103;-69
2022/09/23 06:10:45;;;;;;;22.73;8.02;;;;;;;12.26;100.00;101550.44;5067095;28;20496;-70
2022/09/23 06:13:11;;;;;;;17.65;7.30;;;;;;;12.28;100.00;101553.97;5051714;28;20041;-70
2022/09/23 06:15:37;;;;;;;18.52;8.07;;;;;;;12.34;100.00;101550.56;5036219;28;20025;-70
2022/09/23 06:18:03;;;;;;;10.50;7.15;;;;;;;12.36;100.00;101548.84;5052327;28;20052;-71
2022/09/23 06:20:29;;;;;;;11.15;7.07;;;;;;;12.40;100.00;101552.44;5051630;28;20447;-71
2022/09/23 06:22:55;;;;;;;15.60;7.75;;;;;;;12.43;100.00;101544.59;5052354;28;20060;-70
2022/09/23 06:25:21;;;;;;;15.73;8.05;;;;;;;12.46;100.00;101547.28;5052438;28;20105;-70
2022/09/23 06:27:58;;;;;;;16.55;8.15;;;;;;;12.49;100.00;101544.69;5052770;28;20025;-70
2022/09/23 06:30:25;;;;;;;15.20;7.38;;;;;;;12.53;100.00;101540.38;5051894;28;20501;-70
2022/09/23 06:32:52;;;;;;;10.32;7.25;;;;;;;12.55;100.00;101546.59;5051919;28;20569;-70
2022/09/23 06:35:23;;;;;;;14.10;7.55;;;;;;;12.57;100.00;101547.50;5052552;28;20095;-70
2022/09/23 06:37:49;;;;;;;9.32;7.20;;;;;;;12.59;100.00;101544.03;5067004;28;20451;-70
2022/09/23 06:40:15;;;;;;;12.90;7.45;;;;;;;12.62;100.00;101544.09;5049887;28;20025;-70
2022/09/23 06:42:41;;;;;;;24.88;10.60;;;;;;;12.65;100.00;101533.56;5051016;28;20059;-71
2022/09/23 06:45:11;;;;;;;17.48;8.30;;;;;;;12.72;100.00;101539.00;5038248;28;20017;-70
2022/09/23 06:47:38;;;;;;;21.92;8.57;;;;;;;12.76;100.00;101530.25;5064178;28;20029;-72
2022/09/23 06:50:04;;;;;;;11.38;7.60;;;;;;;12.80;100.00;101533.00;5052217;28;20478;-71
2022/09/23 06:52:29;;;;;;;15.85;7.63;;;;;;;12.86;100.00;101533.94;5051298;28;20388;-70
2022/09/23 06:54:55;;;;;;;14.75;8.00;;;;;;;12.90;100.00;101528.78;5052391;28;20017;-69
2022/09/23 06:57:21;;;;;;;15.50;8.32;;;;;;;12.96;100.00;101533.28;5052806;28;20024;-70
2022/09/23 06:59:46;;;;;;;15.80;8.23;;;;;;;12.99;100.00;101526.31;5052125;28;20063;-72
2022/09/23 07:02:12;;;;;;;12.88;7.68;;;;;;;13.03;100.00;101534.28;5051596;28;20082;-71
2022/09/23 07:04:37;;;;;;;19.70;8.55;;;;;;;13.07;100.00;101531.69;5050994;28;20180;-71
2022/09/23 07:07:02;;;;;;;13.88;7.72;;;;;;;13.15;100.00;101535.34;5051415;28;20530;-70
2022/09/23 07:09:28;;;;;;;14.88;7.30;;;;;;;13.21;100.00;101541.63;5051400;28;20491;-70
2022/09/23 07:11:53;;;;;;;14.10;7.80;;;;;;;13.26;100.00;101532.00;5069532;28;20101;-70
2022/09/23 07:14:19;;;;;;;24.27;7.95;;;;;;;13.29;100.00;101532.97;5071572;28;20048;-70
2022/09/23 07:16:47;;;;;;;13.63;7.97;;;;;;;13.36;100.00;101538.38;5071687;28;20023;-71
2022/09/23 07:19:13;;;;;;;16.08;8.43;;;;;;;13.39;100.00;101534.03;5075893;28;20055;-70
2022/09/23 07:21:38;;;;;;;14.80;7.22;;;;;;;13.48;100.00;101525.34;5075707;28;20063;-69
2022/09/23 07:24:03;;;;;;;12.80;7.85;;;;;;;13.54;100.00;101527.19;5075435;28;20029;-69
2022/09/23 07:26:32;;;;;;;13.27;7.20;;;;;;;13.63;100.00;101537.91;5075480;28;20115;-71
2022/09/23 07:29:03;;;;;;;12.25;7.90;;;;;;;13.69;100.00;101539.75;5075870;28;20361;-70
2022/09/23 07:31:30;;;;;;;18.00;9.85;;;;;;;13.74;100.00;101541.63;5075720;28;20055;-71
2022/09/23 07:33:56;;;;;;;12.85;7.15;;;;;;;13.78;100.00;101538.16;5077358;28;20376;-70
2022/09/23 07:36:22;;;;;;;14.43;8.07;;;;;;;13.80;100.00;101539.06;5057618;28;20035;-72
2022/09/23 07:38:48;;;;;;;13.07;8.55;;;;;;;13.85;100.00;101540.88;5073981;28;20032;-69
2022/09/23 07:41:16;;;;;;;12.88;7.53;;;;;;;13.88;100.00;101530.34;5075547;28;20024;-72
2022/09/23 07:43:43;;;;;;;11.60;8.00;;;;;;;13.91;100.00;101533.91;5074494;28;20394;-71
2022/09/23 07:46:13;;;;;;;11.30;8.32;;;;;;;13.96;100.00;101537.53;5077278;28;20024;-71
2022/09/23 07:48:39;;;;;;;16.02;7.82;;;;;;;14.00;100.00;101539.34;5074510;28;20098;-71
2022/09/23 07:51:32;;;;;;;16.35;7.28;;;;;;;14.05;100.00;101538.50;5075838;28;20017;-71
2022/09/23 07:53:58;;;;;;;16.08;8.18;;;;;;;14.06;100.00;101542.94;5071728;28;20051;-72
2022/09/23 07:56:28;;;;;;;14.20;7.90;;;;;;;14.12;100.00;101549.22;5074199;28;20142;-70
2022/09/23 07:58:59;;;;;;;9.90;6.63;;;;;;;14.18;100.00;101543.09;5073571;28;20029;-70
2022/09/23 08:01:46;;;;;;;11.57;8.02;;;;;;;14.25;100.00;101549.34;5076108;28;20077;-71
2022/09/23 08:04:23;;;;;;;16.15;8.13;;;;;;;14.31;100.00;101549.41;5068105;28;20488;-72
2022/09/23 08:06:56;;;;;;;19.92;8.20;;;;;;;14.39;100.00;101544.22;5074524;28;20032;-72
2022/09/23 08:09:24;;;;;;;13.07;7.13;;;;;;;14.46;100.00;101546.06;5056330;28;20024;-74
2022/09/23 08:11:49;;;;;;;30.27;8.32;;;;;;;14.57;100.00;101549.75;5066771;28;20069;-72
2022/09/23 08:14:17;;;;;;;13.05;7.30;;;;;;;14.64;100.00;101548.09;5060927;28;20075;-71
2022/09/23 08:16:44;;;;;;;16.38;7.18;;;;;;;14.74;100.00;101534.06;5058225;28;20488;-71
2022/09/23 08:19:11;;;;;;;16.92;7.35;;;;;;;14.79;100.00;101545.59;5075049;28;20042;-71
2022/09/23 08:21:38;;;;;;;15.77;7.63;;;;;;;14.83;100.00;101539.47;5041694;28;20472;-70
2022/09/23 08:24:04;;;;;;;13.25;7.13;;;;;;;14.82;100.00;101537.66;5054488;28;20021;-71
2022/09/23 08:26:33;;;;;;;9.80;5.90;;;;;;;14.88;100.00;101541.25;5054392;28;20016;-71
2022/09/23 08:28:59;;;;;;;10.43;6.65;;;;;;;14.95;100.00;101543.13;5056906;28;20025;-71
2022/09/23 08:31:24;;;;;;;14.43;7.72;;;;;;;15.00;100.00;101546.69;5067940;28;20370;-71
2022/09/23 08:33:56;;;;;;;16.27;7.38;;;;;;;15.07;100.00;101543.22;5064227;28;20500;-71
2022/09/23 08:36:23;;;;;;;11.05;7.00;;;;;;;15.12;100.00;101546.78;5061201;28;20029;-71
2022/09/23 08:38:48;;;;;;;12.50;6.68;;;;;;;15.14;100.00;101533.56;5055008;28;20530;-71
2022/09/23 08:41:48;;;;;;;18.95;7.10;;;;;;;15.21;100.00;101546.00;5054633;28;20025;-71
2022/09/23 08:44:25;;;;;;;15.30;6.45;;;;;;;15.34;100.00;101552.28;5050968;28;20033;-70
2022/09/23 08:47:15;;;;;;;14.25;7.40;;;;;;;15.31;100.00;101546.97;5045809;28;20025;-71
2022/09/23 08:49:52;;;;;;;11.00;6.20;;;;;;;15.41;100.00;101546.16;5051272;28;20083;-70
2022/09/23 08:52:27;;;;;;;13.57;6.68;;;;;;;15.51;100.00;101548.00;5054184;28;20025;-69
2022/09/23 08:54:53;;;;;;;11.15;6.10;;;;;;;15.67;100.00;101556.09;5053922;28;20032;-71
2022/09/23 08:57:32;;;;;;;11.38;6.65;;;;;;;15.71;100.00;101556.97;5052662;28;20487;-72
2022/09/23 09:00:00;;;;;;;11.45;6.10;;;;;;;15.79;100.00;101560.56;5052170;28;20385;-70
2022/09/23 09:02:26;;;;;;;10.10;6.03;;;;;;;15.85;100.00;101552.69;5051023;28;20094;-71
2022/09/23 09:04:55;;;;;;;12.27;7.15;;;;;;;15.91;100.00;101550.09;5062956;28;20028;-71
2022/09/23 09:07:28;;;;;;;7.85;6.20;;;;;;;15.97;100.00;101554.53;5054003;28;20498;-70
2022/09/23 09:10:23;;;;;;;13.75;6.38;;;;;;;16.02;100.00;101550.16;5055139;28;20052;-70
2022/09/23 09:13:09;;;;;;;16.35;6.65;;;;;;;16.08;100.00;101551.94;5074864;28;20782;-70
2022/09/23 09:15:45;;;;;;;10.32;6.32;;;;;;;16.01;100.00;101556.34;5073920;28;20029;-70
2022/09/23 09:18:20;;;;;;;9.10;6.32;;;;;;;16.06;100.00;101549.28;5055590;28;20020;-71
2022/09/23 09:21:13;;;;;;;14.15;6.72;;;;;;;16.12;100.00;101549.28;5073892;28;20437;-70
2022/09/23 09:23:58;;;;;;;11.43;5.55;;;;;;;16.17;100.00;101547.56;5074073;28;20032;-71
2022/09/23 09:26:29;;;;;;;12.13;6.40;;;;;;;16.25;100.00;101552.91;5072739;28;20029;-72
2022/09/23 09:29:25;;;;;;;12.80;6.68;;;;;;;16.23;100.00;101551.13;5053615;28;20535;-70
2022/09/23 09:31:51;;;;;;;16.52;6.53;;;;;;;16.19;100.00;101544.91;5073435;28;20024;-70
2022/09/23 09:34:40;;;;;;;8.10;5.72;;;;;;;16.38;100.00;101545.88;5073726;28;20020;-70
2022/09/23 09:37:22;;;;;;;9.32;5.80;;;;;;;16.43;100.00;101545.91;5073533;28;20019;-70
2022/09/23 09:39:47;;;;;;;13.68;6.60;;;;;;;16.46;100.00;101536.16;5073465;28;20480;-72
2022/09/23 09:42:23;;;;;;;10.93;6.72;;;;;;;16.49;100.00;101533.53;5071487;28;20033;-69
2022/09/23 09:44:57;;;;;;;10.82;6.50;;;;;;;16.53;100.00;101534.41;5071700;28;20036;-69
2022/09/23 09:47:59;;;;;;;11.13;6.30;;;;;;;16.58;100.00;101530.00;5071869;28;20024;-70
2022/09/23 09:50:47;;;;;;;10.68;6.20;;;;;;;16.81;100.00;101524.72;5038349;28;20064;-71
2022/09/23 09:53:25;;;;;;;10.82;6.20;;;;;;;16.79;100.00;101531.84;5055275;28;20104;-71
2022/09/23 09:55:58;;;;;;;16.52;6.00;;;;;;;16.79;100.00;101526.50;5072966;28;20035;-70
2022/09/23 09:58:28;;;;;;;10.48;6.03;;;;;;;16.78;100.00;101523.81;5058797;28;20042;-71
2022/09/23 10:00:55;;;;;;;9.82;6.38;;;;;;;16.88;100.00;101525.63;5072895;28;20032;-71
2022/09/23 10:03:30;;;;;;;10.05;6.50;;;;;;;16.91;100.00;101522.13;5071719;28;20393;-70
2022/09/23 10:05:56;;;;;;;11.68;7.05;;;;;;;16.91;100.00;101527.44;5073042;28;20100;-70
2022/09/23 10:08:23;;;;;;;13.50;6.70;;;;;;;16.88;100.00;101519.44;5072887;28;20466;-70
2022/09/23 10:11:16;;;;;;;12.50;7.40;;;;;;;16.98;100.00;101515.91;5063825;28;20044;-70
2022/09/23 10:14:04;;;;;;;12.95;7.53;;;;;;;16.96;100.00;101520.38;5029227;28;20600;-70
2022/09/23 10:16:33;;;;;;;12.50;6.60;;;;;;;16.99;100.00;101510.59;5051167;28;20025;-71
2022/09/23 10:19:00;;;;;;;11.73;6.60;;;;;;;17.03;100.00;101522.13;5051848;28;20044;-71
2022/09/23 10:21:33;;;;;;;11.88;6.72;;;;;;;16.91;100.00;101519.47;5053018;28;20029;-71
2022/09/23 10:24:01;;;;;;;11.68;6.45;;;;;;;16.79;100.00;101514.97;5053053;28;20073;-71
2022/09/23 10:26:42;;;;;;;12.23;6.35;;;;;;;16.81;100.00;101513.22;5052611;28;20021;-71
2022/09/23 10:29:24;;;;;;;11.38;6.20;;;;;;;16.77;100.00;101511.44;5052247;28;20041;-71
2022/09/23 10:32:29;;;;;;;11.40;6.70;;;;;;;16.79;100.00;101505.25;5036059;28;20025;-70
2022/09/23 10:35:08;;;;;;;12.65;6.78;;;;;;;16.67;100.00;101510.50;5051717;28;20091;-71
2022/09/23 10:37:40;;;;;;;11.55;7.22;;;;;;;16.66;100.00;101512.31;5052433;28;20033;-71
2022/09/23 10:46:38;;;;;;;10.82;6.47;;;;;;;16.70;100.00;101510.56;5050479;28;20059;-72
2022/09/23 10:49:17;;;;;;;9.68;6.25;;;;;;;16.79;100.00;101510.56;5049435;28;20368;-71
2022/09/23 10:51:48;;;;;;;13.63;6.25;;;;;;;16.83;100.00;101517.66;5052354;28;20027;-72
2022/09/23 10:54:29;;;;;;;15.93;6.22;;;;;;;16.88;100.00;101514.13;5050771;28;20028;-71
2022/09/23 10:57:36;;;;;;;14.70;6.88;;;;;;;16.91;100.00;101503.50;5051997;28;20063;-72
2022/09/23 10:59:59;;;;;;;9.80;6.22;;;;;;;17.02;100.00;101507.97;5053209;28;20051;-71
2022/09/23 11:03:08;;;;;;;16.52;6.40;;;;;;;17.14;100.00;101501.72;5051739;28;20112;-71
2022/09/23 11:05:54;;;;;;;11.23;6.13;;;;;;;17.42;100.00;101507.06;5054866;28;20074;-72
2022/09/23 11:08:41;;;;;;;10.05;5.32;;;;;;;17.49;100.00;101507.94;5051798;28;20855;-72
2022/09/23 11:11:32;;;;;;;18.63;6.00;;;;;;;17.51;100.00;101508.81;5056860;28;20573;-71
2022/09/23 11:14:16;;;;;;;10.15;5.32;;;;;;;17.72;100.00;101510.56;5057699;28;20048;-71
2022/09/23 11:17:00;;;;;;;;;;;;;;;17.78;100.00;101510.50;5055939;28;20033;-72
2022/09/23 11:19:37;;;;;;;11.07;5.72;;;;;;;17.85;100.00;101501.66;5043921;28;19909;-71
2022/09/23 11:22:14;;;;;;;12.07;5.97;;;;;;;17.93;100.00;101498.97;5055259;28;20020;-71
2022/09/23 11:24:50;;;;;;;10.77;5.93;;;;;;;17.85;100.00;101498.06;5056059;28;20033;-72
2022/09/23 11:27:34;;;;;;;9.85;5.70;;;;;;;17.92;100.00;101498.97;5055696;28;20019;-71
2022/09/23 11:29:59;;;;;;;12.38;5.03;;;;;;;17.79;100.00;101500.78;5058370;28;20029;-71
2022/09/23 11:32:55;;;;;;;11.45;6.13;;;;;;;17.84;100.00;101497.19;5054767;28;20017;-72
2022/09/23 11:35:29;;;;;;;13.30;5.82;;;;;;;17.96;100.00;101490.09;5059864;28;20452;-71
2022/09/23 11:38:03;;;;;;;12.48;6.18;;;;;;;18.10;100.00;101493.59;5053381;28;20032;-72
2022/09/23 11:40:32;;;;;;;8.98;5.82;;;;;;;18.15;100.00;101489.13;5072969;28;20024;-71
2022/09/23 11:43:22;;;;;;;11.10;5.97;;;;;;;18.39;100.00;101481.91;5065187;28;20068;-72